createdAt,value
2022-08-05T00:00:05.246Z,342.9840
2022-08-05T00:00:16.581Z,349.1890
2022-08-05T00:00:27.996Z,354.0880
2022-08-05T00:00:47.281Z,358.3420
2022-08-05T00:01:00.989Z,352.9450
2022-08-05T00:01:20.998Z,349.5610
2022-08-05T00:01:30.839Z,344.4240
2022-08-05T00:01:48.462Z,340.4930
2022-08-05T00:02:07.945Z,345.1490
2022-08-05T00:02:17.413Z,343.7030
2022-08-05T00:02:28.638Z,344.7860
2022-08-05T00:02:39.885Z,352.5660
2022-08-05T00:02:55.218Z,350.3080
2022-08-05T00:03:06.435Z,354.8540
2022-08-05T00:03:23.395Z,348.8180
2022-08-05T00:03:36.172Z,352.5660
2022-08-05T00:03:47.975Z,354.8540
2022-08-05T00:03:59.795Z,358.3420
2022-08-05T00:04:10.865Z,361.8990
2022-08-05T00:04:24.932Z,361.1020
2022-08-05T00:04:36.016Z,362.2990
2022-08-05T00:04:47.089Z,367.5750
2022-08-05T00:05:05.868Z,364.7150
2022-08-05T00:06:02.110Z,361.5000
2022-08-05T00:06:04.885Z,352.9450
2022-08-05T00:06:04.960Z,357.9510
2022-08-05T00:06:28.920Z,350.6820
2022-08-05T00:06:32.151Z,348.0780
2022-08-05T00:06:42.064Z,345.8760
2022-08-05T00:06:54.104Z,349.5610
2022-08-05T00:07:26.978Z,354.8540
2022-08-05T00:08:00.136Z,342.9840
2022-08-05T00:08:00.147Z,351.4330
2022-08-05T00:08:00.439Z,348.8180
2022-08-05T00:08:32.571Z,341.5560
2022-08-05T00:08:35.515Z,342.2680
2022-08-05T00:08:47.515Z,338.0370
2022-08-05T00:08:58.818Z,344.7860
2022-08-05T00:09:12.685Z,349.9340
2022-08-05T00:09:24.095Z,349.9340
2022-08-05T00:09:35.163Z,356.3960
2022-08-05T00:09:46.241Z,357.9510
2022-08-05T00:09:57.592Z,361.8990
2022-08-05T00:10:09.814Z,364.3100
2022-08-05T00:10:21.708Z,366.7530
2022-08-05T00:10:38.666Z,360.7050
2022-08-05T00:10:49.732Z,365.5270
2022-08-05T00:11:01.305Z,369.2290
2022-08-05T00:11:20.592Z,371.3190
2022-08-05T00:11:34.640Z,363.9060
2022-08-05T00:11:48.387Z,360.7050
2022-08-05T00:12:01.011Z,357.1720
2022-08-05T00:12:13.295Z,363.5030
2022-08-05T00:12:24.294Z,365.1210
2022-08-05T00:12:35.363Z,372.1610
2022-08-05T00:12:56.396Z,364.3100
2022-08-05T00:13:08.321Z,361.1020
2022-08-05T00:13:38.941Z,359.5200
2022-08-05T00:13:42.242Z,354.0880
2022-08-05T00:13:54.372Z,359.9140
2022-08-05T00:14:12.668Z,361.5000
2022-08-05T00:14:26.514Z,361.1020
2022-08-05T00:14:40.092Z,356.3960
2022-08-05T00:14:51.742Z,363.1000
2022-08-05T00:15:13.980Z,365.5270
2022-08-05T00:15:55.069Z,357.1720
2022-08-05T00:15:58.155Z,362.2990
2022-08-05T00:15:58.181Z,355.6230
2022-08-05T00:16:12.664Z,351.8100
2022-08-05T00:16:35.389Z,353.3250
2022-08-05T00:16:53.410Z,352.5660
2022-08-05T00:16:57.992Z,350.3080
2022-08-05T00:17:19.487Z,352.9450
2022-08-05T00:17:26.007Z,351.4330
2022-08-05T00:17:37.545Z,356.3960
2022-08-05T00:17:48.604Z,362.2990
2022-08-05T00:17:59.685Z,367.1640
2022-08-05T00:18:21.764Z,365.1210
2022-08-05T00:18:30.694Z,359.9140
2022-08-05T00:18:42.202Z,365.1210
2022-08-05T00:18:53.515Z,370.8990
2022-08-05T00:19:04.595Z,371.7390
2022-08-05T00:19:15.675Z,376.8630
2022-08-05T00:19:33.241Z,377.7310
2022-08-05T00:19:45.760Z,374.7110
2022-08-05T00:20:02.678Z,365.1210
2022-08-05T00:20:14.302Z,368.8140
2022-08-05T00:20:31.261Z,361.8990
2022-08-05T00:20:42.332Z,367.5750
2022-08-05T00:20:53.400Z,373.8570
2022-08-05T00:21:04.861Z,375.1390
2022-08-05T00:21:17.654Z,379.5290
2022-08-05T00:21:30.477Z,379.7460
2022-08-05T00:21:42.661Z,383.4580
2022-08-05T00:21:54.179Z,381.9200
2022-08-05T00:22:05.421Z,384.1200
2022-08-05T00:22:17.892Z,385.4530
2022-08-05T00:22:29.200Z,389.7330
2022-08-05T00:22:42.061Z,385.6760
2022-08-05T00:23:02.571Z,383.2370
2022-08-05T00:23:16.014Z,379.5290
2022-08-05T00:23:44.838Z,380.1790
2022-08-05T00:23:46.196Z,376.4310
2022-08-05T00:24:10.508Z,373.0070
2022-08-05T00:24:19.364Z,367.5750
2022-08-05T00:24:34.932Z,365.1210
2022-08-05T00:24:45.995Z,367.1640
2022-08-05T00:25:02.927Z,367.1640
2022-08-05T00:25:19.890Z,362.6990
2022-08-05T00:25:45.364Z,366.7530
2022-08-05T00:25:49.198Z,361.8990
2022-08-05T00:26:06.188Z,358.7340
2022-08-05T00:26:17.266Z,363.5030
2022-08-05T00:26:28.318Z,369.2290
2022-08-05T00:26:50.848Z,372.1610
2022-08-05T00:26:58.596Z,366.7530
2022-08-05T00:27:10.533Z,371.7390
2022-08-05T00:27:35.691Z,366.3440
2022-08-05T00:27:43.807Z,365.9350
2022-08-05T00:27:55.405Z,369.6450
2022-08-05T00:28:06.403Z,375.5690
2022-08-05T00:28:21.143Z,379.7460
2022-08-05T00:28:34.443Z,373.0070
2022-08-05T00:28:46.653Z,374.7110
2022-08-05T00:29:00.405Z,375.5690
2022-08-05T00:29:13.130Z,377.7310
2022-08-05T00:29:25.796Z,377.7310
2022-08-05T00:29:38.169Z,381.7020
2022-08-05T00:29:49.546Z,385.4530
2022-08-05T00:30:03.396Z,385.8990
2022-08-05T00:30:14.848Z,387.0190
2022-08-05T00:30:29.300Z,387.6940
2022-08-05T00:30:44.042Z,381.4840
2022-08-05T00:30:55.490Z,385.4530
2022-08-05T00:31:07.493Z,389.7330
2022-08-05T00:31:52.999Z,391.5640
2022-08-05T00:31:53.085Z,384.1200
2022-08-05T00:32:11.063Z,381.0480
2022-08-05T00:32:12.924Z,375.9990
2022-08-05T00:32:26.774Z,369.2290
2022-08-05T00:32:38.526Z,373.8570
2022-08-05T00:32:51.537Z,374.7110
2022-08-05T00:33:02.617Z,383.2370
2022-08-05T00:33:15.465Z,385.0080
2022-08-05T00:34:53.479Z,376.8630
2022-08-05T00:34:53.754Z,371.3190
2022-08-05T00:34:53.818Z,383.6780
2022-08-05T00:34:54.816Z,369.6450
2022-08-05T00:34:55.990Z,366.7530
2022-08-05T00:35:06.602Z,364.3100
2022-08-05T00:35:12.490Z,363.1000
2022-08-05T00:35:24.256Z,366.7530
2022-08-05T00:35:47.946Z,365.1210
2022-08-05T00:36:16.664Z,359.5200
2022-08-05T00:37:08.861Z,359.9140
2022-08-05T00:37:09.802Z,357.1720
2022-08-05T00:37:11.883Z,357.1720
2022-08-05T00:37:13.245Z,357.5610
2022-08-05T00:37:23.014Z,355.6230
2022-08-05T00:37:50.824Z,359.1260
2022-08-05T00:37:53.954Z,360.7050
2022-08-05T00:38:05.223Z,360.3090
2022-08-05T00:38:28.875Z,357.9510
2022-08-05T00:38:37.593Z,356.7830
2022-08-05T00:38:48.650Z,365.9350
2022-08-05T00:39:00.513Z,372.5840
2022-08-05T00:39:13.970Z,374.2840
2022-08-05T00:39:25.508Z,374.7110
2022-08-05T00:39:37.149Z,380.6130
2022-08-05T00:39:58.641Z,372.5840
2022-08-05T00:40:10.476Z,371.7390
2022-08-05T00:40:28.476Z,375.9990
2022-08-05T00:40:38.501Z,370.8990
2022-08-05T00:40:55.461Z,370.8990
2022-08-05T00:41:06.549Z,372.5840
2022-08-05T00:41:23.497Z,370.8990
2022-08-05T00:41:52.004Z,375.5690
2022-08-05T00:41:55.544Z,371.7390
2022-08-05T00:42:07.102Z,371.7390
2022-08-05T00:42:31.703Z,375.5690
2022-08-05T00:42:37.073Z,370.4800
2022-08-05T00:42:48.227Z,376.8630
2022-08-05T00:43:00.309Z,380.1790
2022-08-05T00:43:11.331Z,389.0510
2022-08-05T00:43:26.507Z,385.2300
2022-08-05T00:43:47.317Z,381.4840
2022-08-05T00:44:00.454Z,375.5690
2022-08-05T00:44:11.546Z,380.6130
2022-08-05T00:44:23.157Z,387.4680
2022-08-05T00:44:34.592Z,390.1890
2022-08-05T00:44:48.618Z,389.9610
2022-08-05T00:45:00.197Z,393.6440
2022-08-05T00:45:11.705Z,396.4530
2022-08-05T00:45:37.917Z,396.9250
2022-08-05T00:45:43.657Z,390.1890
2022-08-05T00:45:55.024Z,389.2780
2022-08-05T00:46:06.207Z,398.5850
2022-08-05T00:46:17.310Z,397.1610
2022-08-05T00:46:36.879Z,395.5120
2022-08-05T00:46:54.290Z,387.6940
2022-08-05T00:47:08.206Z,384.7850
2022-08-05T00:47:23.085Z,382.7970
2022-08-05T00:47:53.283Z,389.0510
2022-08-05T00:47:56.834Z,388.1450
2022-08-05T00:48:08.086Z,385.8990
2022-08-05T00:48:31.237Z,385.4530
2022-08-05T00:48:51.306Z,381.9200
2022-08-05T00:48:54.350Z,379.9620
2022-08-05T00:49:05.400Z,383.6780
2022-08-05T00:49:19.003Z,385.4530
2022-08-05T00:49:32.731Z,391.3340
2022-08-05T00:49:51.401Z,389.9610
2022-08-05T00:50:02.900Z,383.6780
2022-08-05T00:50:14.724Z,389.0510
2022-08-05T00:50:26.359Z,394.5760
2022-08-05T00:50:37.434Z,401.4650
2022-08-05T00:50:48.500Z,403.8970
2022-08-05T00:50:59.752Z,405.6160
2022-08-05T00:51:50.775Z,402.6770
2022-08-05T00:51:51.832Z,394.5760
2022-08-05T00:51:52.325Z,391.7940
2022-08-05T00:52:04.169Z,390.8750
2022-08-05T00:52:15.230Z,396.2170
2022-08-05T00:52:29.071Z,393.8770
2022-08-05T00:52:40.125Z,397.8720
2022-08-05T00:52:51.194Z,407.1020
2022-08-05T00:53:09.816Z,404.8770
2022-08-05T00:53:45.114Z,392.2550
2022-08-05T00:54:01.402Z,398.8240
2022-08-05T00:54:02.432Z,389.5050
2022-08-05T00:54:12.340Z,384.7850
2022-08-05T00:54:23.422Z,389.5050
2022-08-05T00:54:39.272Z,387.6940
2022-08-05T00:54:50.343Z,393.4120
2022-08-05T00:55:02.119Z,400.7410
2022-08-05T00:55:14.834Z,400.7410
2022-08-05T00:55:42.081Z,402.1910
2022-08-05T00:55:43.865Z,398.8240
2022-08-05T00:55:55.224Z,399.3010
2022-08-05T00:56:07.958Z,403.6520
2022-08-05T00:56:22.899Z,402.1910
2022-08-05T00:56:34.957Z,401.9490
2022-08-05T00:56:51.805Z,406.1100
2022-08-05T00:57:02.973Z,400.0200
2022-08-05T00:57:14.034Z,405.6160
2022-08-05T00:57:31.901Z,410.6120
2022-08-05T00:57:55.380Z,404.8770
2022-08-05T00:57:59.415Z,395.9820
2022-08-05T00:58:11.340Z,399.7800
2022-08-05T00:58:27.480Z,404.1410
2022-08-05T00:58:39.767Z,396.2170
2022-08-05T00:58:53.738Z,397.3980
2022-08-05T00:59:06.921Z,399.7800
2022-08-05T00:59:18.385Z,402.4340
2022-08-05T00:59:34.748Z,408.0990
2022-08-05T00:59:46.405Z,401.9490
2022-08-05T00:59:59.026Z,403.8970
2022-08-05T01:00:11.222Z,407.1020
2022-08-05T01:00:25.980Z,405.1230
2022-08-05T01:00:37.491Z,405.8630
2022-08-05T01:00:50.208Z,410.3590
2022-08-05T01:01:01.698Z,411.1180
2022-08-05T01:01:24.667Z,404.1410
2022-08-05T01:01:43.008Z,398.3470
2022-08-05T01:01:52.565Z,395.9820
2022-08-05T01:02:03.654Z,398.3470
2022-08-05T01:02:14.773Z,401.9490
2022-08-05T01:02:27.655Z,404.6320
2022-08-05T01:02:38.765Z,407.8490
2022-08-05T01:02:50.152Z,412.3890
2022-08-05T01:03:01.473Z,413.6680
2022-08-05T01:03:22.798Z,409.6030
2022-08-05T01:03:35.408Z,404.1410
2022-08-05T01:03:46.455Z,402.6770
2022-08-05T01:04:01.312Z,402.6770
2022-08-05T01:04:14.269Z,403.8970
2022-08-05T01:04:29.945Z,402.4340
2022-08-05T01:04:42.135Z,403.1640
2022-08-05T01:04:53.357Z,406.3580
2022-08-05T01:05:05.100Z,412.3890
2022-08-05T01:05:21.493Z,406.8540
2022-08-05T01:05:32.551Z,408.0990
2022-08-05T01:05:45.540Z,408.5990
2022-08-05T01:05:56.600Z,413.1560
2022-08-05T01:06:13.994Z,413.4120
2022-08-05T01:06:32.649Z,410.6120
2022-08-05T01:06:41.553Z,400.7410
2022-08-05T01:06:58.618Z,397.6350
2022-08-05T01:07:13.756Z,403.1640
2022-08-05T01:07:31.655Z,396.9250
2022-08-05T01:08:29.905Z,395.9820
2022-08-05T01:08:41.365Z,392.9480
2022-08-05T01:08:42.801Z,385.4530
2022-08-05T01:08:43.418Z,385.0080
2022-08-05T01:08:50.066Z,377.2960
2022-08-05T01:09:01.274Z,385.2300
2022-08-05T01:09:14.169Z,390.1890
2022-08-05T01:09:25.250Z,395.7470
2022-08-05T01:09:42.206Z,390.4180
2022-08-05T01:09:55.515Z,394.1090
2022-08-05T01:10:09.023Z,392.2550
2022-08-05T01:10:20.381Z,392.2550
2022-08-05T01:10:37.329Z,389.0510
2022-08-05T01:10:52.157Z,393.4120
2022-08-05T01:11:03.889Z,389.0510
2022-08-05T01:11:22.163Z,395.2780
2022-08-05T01:11:36.893Z,392.7170
2022-08-05T01:11:48.953Z,384.3420
2022-08-05T01:12:09.213Z,392.4860
2022-08-05T01:12:17.964Z,386.5700
2022-08-05T01:12:29.992Z,386.7940
2022-08-05T01:12:41.053Z,393.1800
2022-08-05T01:13:12.947Z,387.6940
2022-08-05T01:13:19.376Z,385.8990
2022-08-05T01:13:57.382Z,382.3580
2022-08-05T01:13:58.715Z,376.8630
2022-08-05T01:14:08.964Z,370.8990
2022-08-05T01:14:28.264Z,370.4800
2022-08-05T01:14:37.169Z,371.7390
2022-08-05T01:14:51.451Z,370.8990
2022-08-05T01:15:04.140Z,381.7020
2022-08-05T01:15:18.152Z,377.7310
2022-08-05T01:15:35.523Z,375.1390
2022-08-05T01:15:48.091Z,375.1390
2022-08-05T01:15:59.274Z,382.7970
2022-08-05T01:16:11.111Z,387.6940
2022-08-05T01:16:26.242Z,390.4180
2022-08-05T01:16:37.913Z,387.6940
2022-08-05T01:16:48.974Z,392.9480
2022-08-05T01:17:00.077Z,396.4530
2022-08-05T01:17:13.113Z,397.1610
2022-08-05T01:17:24.461Z,399.5410
2022-08-05T01:17:40.082Z,401.2230
2022-08-05T01:17:53.706Z,394.3420
2022-08-05T01:18:05.274Z,396.2170
2022-08-05T01:18:22.241Z,390.6460
2022-08-05T01:18:34.064Z,391.1040
2022-08-05T01:18:45.135Z,399.0620
2022-08-05T01:18:59.355Z,395.9820
2022-08-05T01:19:14.218Z,395.5120
2022-08-05T01:19:46.092Z,395.7470
2022-08-05T01:20:02.123Z,389.9610
2022-08-05T01:20:03.060Z,387.6940
2022-08-05T01:20:14.822Z,384.1200
2022-08-05T01:20:27.513Z,384.3420
2022-08-05T01:20:38.744Z,388.8240
2022-08-05T01:20:49.782Z,395.5120
2022-08-05T01:21:00.841Z,399.0620
2022-08-05T01:21:12.063Z,403.1640
2022-08-05T01:21:23.226Z,407.1020
2022-08-05T01:21:40.102Z,400.9820
2022-08-05T01:21:51.279Z,399.7800
2022-08-05T01:22:02.342Z,405.1230
2022-08-05T01:22:15.630Z,410.1060
2022-08-05T01:22:30.409Z,401.7070
2022-08-05T01:22:43.099Z,398.3470
2022-08-05T01:22:58.161Z,395.9820
2022-08-05T01:23:14.977Z,402.6770
2022-08-05T01:23:34.760Z,395.9820
2022-08-05T01:23:43.580Z,388.8240
2022-08-05T01:24:00.983Z,387.6940
2022-08-05T01:24:17.499Z,381.0480
2022-08-05T01:24:33.529Z,376.8630
2022-08-05T01:24:44.678Z,385.8990
2022-08-05T01:24:55.710Z,393.8770
2022-08-05T01:25:06.770Z,396.9250
2022-08-05T01:25:17.841Z,402.6770
2022-08-05T01:25:39.746Z,406.1100
2022-08-05T01:25:50.275Z,399.3010
2022-08-05T01:26:03.219Z,392.7170
2022-08-05T01:26:14.305Z,395.2780
2022-08-05T01:26:26.187Z,402.4340
2022-08-05T01:26:37.462Z,402.6770
2022-08-05T01:26:48.530Z,408.5990
2022-08-05T01:26:59.627Z,411.8800
2022-08-05T01:27:17.488Z,412.6440
2022-08-05T01:27:27.753Z,405.8630
2022-08-05T01:27:55.594Z,398.1090
2022-08-05T01:28:01.591Z,392.0240
2022-08-05T01:28:12.649Z,396.6880
2022-08-05T01:28:23.709Z,403.4080
2022-08-05T01:28:35.208Z,408.8490
2022-08-05T01:28:46.296Z,411.3710
2022-08-05T01:28:57.350Z,414.1820
2022-08-05T01:29:14.310Z,408.0990
2022-08-05T01:29:25.379Z,408.0990
2022-08-05T01:29:37.158Z,410.1060
2022-08-05T01:29:48.228Z,413.4120
2022-08-05T01:30:00.071Z,416.7710
2022-08-05T01:30:17.833Z,418.0770
2022-08-05T01:30:34.173Z,411.6250
2022-08-05T01:30:46.598Z,404.6320
2022-08-05T01:31:03.187Z,399.3010
2022-08-05T01:31:14.228Z,401.9490
2022-08-05T01:31:25.298Z,410.1060
2022-08-05T01:31:42.686Z,413.6680
2022-08-05T01:31:53.867Z,406.6060
2022-08-05T01:32:04.947Z,411.1180
2022-08-05T01:32:21.876Z,404.3860
2022-08-05T01:32:32.956Z,409.1000
2022-08-05T01:32:45.366Z,414.6970
2022-08-05T01:32:56.718Z,411.3710
2022-08-05T01:33:08.119Z,417.0310
2022-08-05T01:33:19.866Z,419.3920
2022-08-05T01:33:35.645Z,420.7150
2022-08-05T01:33:48.984Z,415.2140
2022-08-05T01:34:00.399Z,414.9550
2022-08-05T01:34:12.685Z,418.8650
2022-08-05T01:34:26.947Z,419.3920
2022-08-05T01:34:38.387Z,415.2140
2022-08-05T01:34:49.467Z,421.7790
2022-08-05T01:35:01.068Z,424.4640
2022-08-05T01:35:12.265Z,428.0060
2022-08-05T01:35:50.657Z,412.1340
2022-08-05T01:35:52.172Z,419.9200
2022-08-05T01:36:03.158Z,404.8770
2022-08-05T01:36:15.987Z,405.8630
2022-08-05T01:36:28.343Z,413.6680
2022-08-05T01:36:42.074Z,414.6970
2022-08-05T01:36:53.584Z,411.8800
2022-08-05T01:37:04.657Z,415.4720
2022-08-05T01:37:24.605Z,419.6560
2022-08-05T01:37:32.879Z,412.6440
2022-08-05T01:37:47.637Z,407.8490
2022-08-05T01:38:00.223Z,411.6250
2022-08-05T01:38:14.546Z,417.2920
2022-08-05T01:38:30.224Z,412.3890
2022-08-05T01:38:41.416Z,410.1060
2022-08-05T01:38:52.619Z,414.1820
2022-08-05T01:39:03.701Z,422.0460
2022-08-05T01:39:14.775Z,425.8190
2022-08-05T01:39:46.518Z,415.7310
2022-08-05T01:39:48.754Z,407.3510
2022-08-05T01:39:59.845Z,409.6030
2022-08-05T01:40:10.884Z,417.0310
2022-08-05T01:40:21.974Z,419.6560
2022-08-05T01:40:38.934Z,410.3590
2022-08-05T01:40:50.377Z,414.1820
2022-08-05T01:41:02.464Z,416.2500
2022-08-05T01:41:13.525Z,421.7790
2022-08-05T01:41:25.908Z,421.2460
2022-08-05T01:41:37.602Z,425.0050
2022-08-05T01:41:48.958Z,422.5810
2022-08-05T01:42:01.107Z,428.2810
2022-08-05T01:42:12.177Z,430.7710
2022-08-05T01:42:24.875Z,427.4570
2022-08-05T01:42:37.898Z,424.7340
2022-08-05T01:42:51.977Z,421.5130
2022-08-05T01:43:03.605Z,424.7340
2022-08-05T01:43:22.152Z,427.7310
2022-08-05T01:43:31.985Z,417.5540
2022-08-05T01:43:43.038Z,422.0460
2022-08-05T01:43:54.077Z,427.4570
2022-08-05T01:44:05.705Z,426.3640
2022-08-05T01:44:21.348Z,420.4500
2022-08-05T01:44:35.886Z,417.8150
2022-08-05T01:44:54.383Z,420.7150
2022-08-05T01:45:04.017Z,415.4720
2022-08-05T01:45:19.306Z,405.6160
2022-08-05T01:45:35.016Z,414.1820
2022-08-05T01:45:48.177Z,409.8540
2022-08-05T01:46:07.324Z,402.1910
2022-08-05T01:46:42.313Z,400.2600
2022-08-05T01:46:42.767Z,392.4860
2022-08-05T01:46:56.029Z,390.1890
2022-08-05T01:47:07.114Z,396.9250
2022-08-05T01:47:21.214Z,399.0620
2022-08-05T01:47:39.002Z,404.1410
2022-08-05T01:47:49.767Z,395.7470
2022-08-05T01:48:10.437Z,392.2550
2022-08-05T01:48:21.568Z,385.0080
2022-08-05T01:48:33.766Z,396.9250
2022-08-05T01:48:44.830Z,399.3010
2022-08-05T01:49:00.807Z,394.1090
2022-08-05T01:49:24.046Z,389.9610
2022-08-05T01:50:00.421Z,385.4530
2022-08-05T01:50:01.390Z,382.5780
2022-08-05T01:50:08.685Z,380.8300
2022-08-05T01:50:28.859Z,375.1390
2022-08-05T01:50:41.139Z,375.1390
2022-08-05T01:50:58.061Z,374.7110
2022-08-05T01:51:15.032Z,372.1610
2022-08-05T01:51:26.103Z,376.4310
2022-08-05T01:51:41.312Z,377.2960
2022-08-05T01:51:58.757Z,374.2840
2022-08-05T01:52:12.434Z,381.0480
2022-08-05T01:52:27.081Z,377.2960
2022-08-05T01:52:38.151Z,381.0480
2022-08-05T01:52:50.010Z,388.1450
2022-08-05T01:53:01.311Z,394.1090
2022-08-05T01:53:13.526Z,396.9250
2022-08-05T01:53:57.500Z,388.5970
2022-08-05T01:53:57.643Z,400.9820
2022-08-05T01:53:59.118Z,385.4530
2022-08-05T01:54:13.428Z,383.0170
2022-08-05T01:54:29.032Z,377.7310
2022-08-05T01:54:46.163Z,384.5640
2022-08-05T01:54:57.069Z,385.2300
2022-08-05T01:55:08.797Z,386.3460
2022-08-05T01:55:19.869Z,392.4860
2022-08-05T01:55:31.759Z,397.1610
2022-08-05T01:55:47.203Z,393.1800
2022-08-05T01:55:58.269Z,396.9250
2022-08-05T01:56:09.360Z,401.4650
2022-08-05T01:58:10.465Z,389.5050
2022-08-05T01:58:10.466Z,380.6130
2022-08-05T01:58:10.467Z,397.8720
2022-08-05T01:58:11.648Z,373.0070
2022-08-05T01:58:12.460Z,370.8990
2022-08-05T01:58:14.710Z,403.1640
2022-08-05T01:58:29.164Z,385.8990
2022-08-05T01:58:40.453Z,368.8140
2022-08-05T01:58:44.965Z,367.5750
2022-08-05T01:58:53.123Z,365.1210
2022-08-05T01:59:04.191Z,371.3190
2022-08-05T01:59:15.718Z,378.1660
2022-08-05T01:59:26.783Z,386.7940
2022-08-05T01:59:38.545Z,389.5050
2022-08-05T01:59:49.597Z,391.5640
2022-08-05T02:00:00.680Z,395.9820
2022-08-05T02:00:12.402Z,399.3010
2022-08-05T02:00:29.943Z,404.6320
2022-08-05T02:00:40.747Z,393.1800
2022-08-05T02:00:52.677Z,394.1090
2022-08-05T02:01:03.747Z,401.7070
2022-08-05T02:01:14.928Z,403.1640
2022-08-05T02:01:31.914Z,396.9250
2022-08-05T02:01:48.852Z,387.9190
2022-08-05T02:02:00.094Z,392.4860
2022-08-05T02:02:11.467Z,397.3980
2022-08-05T02:02:26.272Z,400.2600
2022-08-05T02:02:41.187Z,393.6440
2022-08-05T02:02:56.754Z,387.4680
2022-08-05T02:03:07.803Z,392.9480
2022-08-05T02:03:31.303Z,385.0080
2022-08-05T02:03:41.715Z,381.9200
2022-08-05T02:03:54.482Z,382.5780
2022-08-05T02:04:08.741Z,380.3950
2022-08-05T02:04:21.542Z,385.4530
2022-08-05T02:04:32.612Z,392.7170
2022-08-05T02:04:46.246Z,397.1610
2022-08-05T02:05:01.546Z,386.5700
2022-08-05T02:05:14.244Z,387.6940
2022-08-05T02:05:28.579Z,391.5640
2022-08-05T02:05:39.856Z,395.0430
2022-08-05T02:05:57.907Z,392.7170
2022-08-05T02:06:23.918Z,384.7850
2022-08-05T02:06:37.777Z,380.6130
2022-08-05T02:06:45.035Z,375.1390
2022-08-05T02:06:56.289Z,380.6130
2022-08-05T02:07:09.079Z,383.6780
2022-08-05T02:07:21.967Z,386.7940
2022-08-05T02:07:34.049Z,389.2780
2022-08-05T02:07:57.822Z,392.4860
2022-08-05T02:08:02.530Z,385.4530
2022-08-05T02:08:13.834Z,389.5050
2022-08-05T02:08:31.602Z,386.7940
2022-08-05T02:08:54.897Z,386.7940
2022-08-05T02:08:59.755Z,382.3580
2022-08-05T02:09:11.753Z,384.7850
2022-08-05T02:09:28.141Z,382.5780
2022-08-05T02:09:39.458Z,387.2430
2022-08-05T02:09:51.295Z,390.8750
2022-08-05T02:10:02.368Z,397.3980
2022-08-05T02:10:17.277Z,400.2600
2022-08-05T02:10:28.898Z,393.4120
2022-08-05T02:10:39.914Z,398.3470
2022-08-05T02:10:52.401Z,398.3470
2022-08-05T02:11:04.586Z,400.5000
2022-08-05T02:11:15.659Z,403.1640
2022-08-05T02:11:32.851Z,395.2780
2022-08-05T02:11:48.113Z,394.5760
2022-08-05T02:12:02.191Z,389.9610
2022-08-05T02:12:13.239Z,394.1090
2022-08-05T02:12:25.346Z,400.0200
2022-08-05T02:12:36.736Z,398.8240
2022-08-05T02:12:51.061Z,401.2230
2022-08-05T02:13:02.335Z,399.5410
2022-08-05T02:13:16.859Z,397.3980
2022-08-05T02:13:28.554Z,399.0620
2022-08-05T02:13:53.800Z,390.8750
2022-08-05T02:14:02.455Z,384.1200
2022-08-05T02:14:14.659Z,389.0510
2022-08-05T02:14:28.095Z,387.9190
2022-08-05T02:14:39.145Z,392.9480
2022-08-05T02:14:54.316Z,387.9190
2022-08-05T02:15:06.825Z,393.4120
2022-08-05T02:15:23.786Z,388.3710
2022-08-05T02:15:34.964Z,392.0240
2022-08-05T02:15:46.035Z,396.4530
2022-08-05T02:15:58.015Z,400.0200
2022-08-05T02:16:09.085Z,402.1910
2022-08-05T02:16:26.046Z,392.2550
2022-08-05T02:16:38.975Z,390.4180
2022-08-05T02:16:52.152Z,394.5760
2022-08-05T02:17:04.256Z,396.4530
2022-08-05T02:17:29.896Z,396.4530
2022-08-05T02:18:27.730Z,383.6780
2022-08-05T02:18:28.846Z,375.1390
2022-08-05T02:18:31.515Z,370.8990
2022-08-05T02:18:31.560Z,392.9480
2022-08-05T02:18:41.965Z,367.1640
2022-08-05T02:18:53.376Z,372.5840
2022-08-05T02:19:07.181Z,381.2650
2022-08-05T02:19:18.668Z,382.5780
2022-08-05T02:19:34.425Z,386.7940
2022-08-05T02:19:47.201Z,377.7310
2022-08-05T02:19:58.849Z,382.1390
2022-08-05T02:20:11.533Z,384.1200
2022-08-05T02:20:22.614Z,390.1890
2022-08-05T02:20:33.676Z,393.6440
2022-08-05T02:20:50.654Z,386.3460
2022-08-05T02:21:01.724Z,391.1040
2022-08-05T02:21:14.851Z,392.2550
2022-08-05T02:21:27.642Z,389.9610
2022-08-05T02:21:43.446Z,386.1220
2022-08-05T02:21:58.432Z,380.1790
2022-08-05T02:22:09.953Z,384.1200
2022-08-05T02:22:27.366Z,376.8630
2022-08-05T02:22:38.578Z,381.4840
2022-08-05T02:22:49.678Z,387.2430
2022-08-05T02:23:00.864Z,393.6440
2022-08-05T02:23:12.575Z,392.4860
2022-08-05T02:23:25.902Z,390.1890
2022-08-05T02:23:38.703Z,392.2550
2022-08-05T02:23:50.214Z,395.0430
2022-08-05T02:24:01.434Z,395.7470
2022-08-05T02:24:13.182Z,397.3980
2022-08-05T02:24:30.271Z,388.8240
2022-08-05T02:24:42.687Z,388.1450
2022-08-05T02:24:53.766Z,395.5120
2022-08-05T02:25:04.827Z,399.0620
2022-08-05T02:25:15.887Z,402.6770
2022-08-05T02:25:26.947Z,401.4650
2022-08-05T02:25:49.161Z,391.1040
2022-08-05T02:26:00.916Z,383.6780
2022-08-05T02:26:12.928Z,384.7850
2022-08-05T02:26:24.004Z,390.4180
2022-08-05T02:26:37.848Z,388.3710
2022-08-05T02:26:54.890Z,387.2430
2022-08-05T02:27:10.088Z,385.4530
2022-08-05T02:27:30.261Z,383.2370
2022-08-05T02:27:58.241Z,373.8570
2022-08-05T02:27:58.586Z,367.5750
2022-08-05T02:28:11.604Z,363.1000
2022-08-05T02:28:28.299Z,373.4320
2022-08-05T02:28:41.524Z,367.5750
2022-08-05T02:28:52.891Z,370.0620
2022-08-05T02:29:04.107Z,374.7110
2022-08-05T02:29:21.632Z,377.2960
2022-08-05T02:29:58.110Z,365.9350
2022-08-05T02:29:58.668Z,372.5840
2022-08-05T02:30:06.036Z,358.7340
2022-08-05T02:30:18.001Z,365.1210
2022-08-05T02:30:29.935Z,371.3190
2022-08-05T02:30:51.645Z,373.8570
2022-08-05T02:30:58.008Z,367.9870
2022-08-05T02:31:14.648Z,367.5750
2022-08-05T02:31:26.282Z,363.9060
2022-08-05T02:31:39.460Z,367.9870
2022-08-05T02:31:50.529Z,371.7390
2022-08-05T02:32:04.615Z,376.8630
2022-08-05T02:32:23.714Z,370.8990
2022-08-05T02:32:33.206Z,365.1210
2022-08-05T02:32:45.417Z,367.1640
2022-08-05T02:32:56.861Z,373.0070
2022-08-05T02:33:08.965Z,373.8570
2022-08-05T02:33:24.519Z,372.5840
2022-08-05T02:33:39.305Z,369.2290
2022-08-05T02:33:57.473Z,370.8990
2022-08-05T02:34:09.339Z,364.3100
2022-08-05T02:34:21.405Z,365.1210
2022-08-05T02:34:33.867Z,367.5750
2022-08-05T02:34:45.406Z,372.5840
2022-08-05T02:35:13.563Z,365.5270
2022-08-05T02:35:19.299Z,357.9510
2022-08-05T02:35:38.569Z,353.3250
2022-08-05T02:35:57.515Z,350.6820
2022-08-05T02:36:10.175Z,347.3410
2022-08-05T02:36:24.944Z,348.4480
2022-08-05T02:36:38.695Z,349.9340
2022-08-05T02:36:49.765Z,357.9510
2022-08-05T02:37:00.951Z,363.5030
2022-08-05T02:37:15.806Z,360.3090
2022-08-05T02:37:28.424Z,361.8990
2022-08-05T02:37:43.116Z,357.9510
2022-08-05T02:38:00.401Z,356.0090
2022-08-05T02:38:19.301Z,355.2380
2022-08-05T02:38:35.166Z,351.4330
2022-08-05T02:38:53.230Z,350.3080
2022-08-05T02:39:04.575Z,342.2680
2022-08-05T02:39:21.385Z,340.1400
2022-08-05T02:39:32.942Z,346.9740
2022-08-05T02:39:47.639Z,353.3250
2022-08-05T02:40:01.029Z,351.8100
2022-08-05T02:40:12.089Z,354.0880
2022-08-05T02:40:24.223Z,360.3090
2022-08-05T02:40:36.939Z,358.7340
2022-08-05T02:40:48.025Z,362.2990
2022-08-05T02:40:59.099Z,367.5750
2022-08-05T02:41:17.887Z,361.8990
2022-08-05T02:41:43.274Z,359.5200
2022-08-05T02:42:00.525Z,353.3250
2022-08-05T02:42:03.190Z,349.1890
2022-08-05T02:42:22.550Z,354.0880